Time;durP1;ratioP1;P1;durP2;ratioP2;P2;SDS_P1;SDS_P2;PMS_P1;PMS_P2;Temp;Humidity;BMP_temperature;BMP_pressure;BME280_temperature;BME280_humidity;BME280_pressure;Samples;Min_cycle;Max_cycle;Signal;HPM_P1;HPM_P2
2023/10/17 00:00:51;;;;;;;;;;;;;;;6.11;100.00;101913.22;5116624;28;19912;-46
2023/10/17 00:03:16;;;;;;;;;;;;;;;6.10;100.00;101921.66;5115576;28;19967;-50
2023/10/17 00:05:41;;;;;;;;;;;;;;;6.08;100.00;101913.00;5116623;28;19943;-51
2023/10/17 00:08:09;;;;;;;;;;;;;;;6.08;100.00;101918.09;5116028;28;20006;-49
2023/10/17 00:10:35;;;;;;;;;;;;;;;6.08;100.00;101918.09;5116270;28;19933;-50
2023/10/17 00:15:45;;;;;;;;;;;;;;;6.07;100.00;101911.25;5115995;28;19957;-50
2023/10/17 00:18:18;;;;;;;;;;;;;;;6.07;100.00;101904.44;5116143;28;19911;-50
2023/10/17 00:20:44;;;;;;;;;;;;;;;6.08;100.00;101907.88;5116376;28;20264;-51
2023/10/17 00:23:14;;;;;;;;;;;;;;;6.09;100.00;101915.69;5115497;28;19918;-50
2023/10/17 00:25:42;;;;;;;;;;;;;;;6.11;100.00;101910.66;5116065;28;19934;-51
2023/10/17 00:28:10;;;;;;;;;;;;;;;6.13;100.00;101916.72;5116377;28;20015;-49
2023/10/17 00:30:37;;;;;;;;;;;;;;;6.11;100.00;101897.84;5115120;28;19919;-50
2023/10/17 00:33:05;;;;;;;;;;;;;;;6.12;100.00;101908.97;5116197;28;19916;-48
2023/10/17 00:35:36;;;;;;;;;;;;;;;6.10;100.00;101908.88;5115764;28;20004;-46
2023/10/17 00:38:05;;;;;;;;;;;;;;;6.11;100.00;101892.72;5115159;28;19911;-49
2023/10/17 00:40:51;;;;;;;;;;;;;;;6.09;100.00;101884.97;5097416;28;20278;-48
2023/10/17 00:43:17;;;;;;;;;;;;;;;6.09;100.00;101886.63;5114840;28;19912;-48
2023/10/17 00:45:46;;;;;;;;;;;;;;;6.09;100.00;101884.06;5116011;28;19934;-50
2023/10/17 00:48:18;;;;;;;;;;;;;;;6.07;100.00;101883.97;5115531;28;19919;-49
2023/10/17 00:50:44;;;;;;;;;;;;;;;6.07;100.00;101891.63;5114941;28;19912;-50
2023/10/17 00:53:11;;;;;;;;;;;;;;;6.07;100.00;101883.97;5115804;28;19915;-50
2023/10/17 00:55:37;;;;;;;;;;;;;;;6.08;100.00;101887.41;5115872;28;19911;-47
2023/10/17 00:58:03;;;;;;;;;;;;;;;6.06;100.00;101884.75;5114792;28;19995;-50
2023/10/17 01:00:39;;;;;;;;;;;;;;;6.06;100.00;101886.44;5115216;28;19973;-50
2023/10/17 01:03:10;;;;;;;;;;;;;;;6.06;100.00;101883.88;5115343;28;20282;-46
2023/10/17 01:05:46;;;;;;;;;;;;;;;6.06;100.00;101874.50;5114795;28;19912;-50
2023/10/17 01:08:11;;;;;;;;;;;;;;;6.08;100.00;101882.28;5115233;28;19994;-49
2023/10/17 01:10:37;;;;;;;;;;;;;;;6.08;100.00;101890.84;5115590;28;19958;-50
2023/10/17 01:13:03;;;;;;;;;;;;;;;6.10;100.00;101894.38;5114984;28;19919;-51
2023/10/17 01:15:32;;;;;;;;;;;;;;;6.10;100.00;101891.81;5114967;28;19916;-49
2023/10/17 01:18:03;;;;;;;;;;;;;;;6.10;100.00;101891.81;5115101;28;19911;-49
2023/10/17 01:20:29;;;;;;;;;;;;;;;6.10;100.00;101885.84;5114057;28;20291;-51
2023/10/17 01:22:56;;;;;;;;;;;;;;;6.10;100.00;101891.81;5115193;28;20359;-50
2023/10/17 01:25:34;;;;;;;;;;;;;;;6.09;100.00;101894.28;5114851;28;19951;-50
2023/10/17 01:28:00;;;;;;;;;;;;;;;6.08;100.00;101889.94;5114954;28;20311;-50
2023/10/17 01:30:29;;;;;;;;;;;;;;;6.07;100.00;101885.66;5114624;28;20018;-50
2023/10/17 01:32:54;;;;;;;;;;;;;;;6.07;100.00;101875.41;5114245;28;19912;-51
2023/10/17 01:35:19;;;;;;;;;;;;;;;6.07;100.00;101875.41;5114735;28;19912;-50
2023/10/17 01:37:47;;;;;;;;;;;;;;;6.05;100.00;101867.59;5114881;28;20287;-50
2023/10/17 01:40:22;;;;;;;;;;;;;;;6.04;100.00;101872.63;5113771;28;20002;-51
2023/10/17 01:42:47;;;;;;;;;;;;;;;6.02;100.00;101866.56;5113925;28;19911;-51
2023/10/17 01:45:14;;;;;;;;;;;;;;;5.99;100.00;101858.66;5114650;28;19919;-50
2023/10/17 01:47:39;;;;;;;;;;;;;;;5.99;100.00;101861.22;5113987;28;19919;-49
2023/10/17 01:50:07;;;;;;;;;;;;;;;5.97;100.00;101860.22;5114719;28;20385;-50
2023/10/17 01:52:33;;;;;;;;;;;;;;;5.94;100.00;101861.78;5114185;28;19957;-51
2023/10/17 01:54:59;;;;;;;;;;;;;;;5.93;100.00;101857.44;5113563;28;19915;-51
2023/10/17 01:57:24;;;;;;;;;;;;;;;5.92;100.00;101845.44;5114186;28;19954;-47
2023/10/17 01:59:49;;;;;;;;;;;;;;;5.91;100.00;101840.22;5114349;28;19920;-51
2023/10/17 02:02:15;;;;;;;;;;;;;;;5.90;100.00;101841.00;5113411;28;19957;-51
2023/10/17 02:04:40;;;;;;;;;;;;;;;5.89;100.00;101839.25;5114319;28;19958;-51
2023/10/17 02:07:06;;;;;;;;;;;;;;;5.88;100.00;101835.78;5114153;28;19918;-50
2023/10/17 02:11:56;;;;;;;;;;;;;;;5.83;100.00;101824.38;5114184;28;20312;-51
2023/10/17 02:14:22;;;;;;;;;;;;;;;5.81;100.00;101825.97;5113997;28;19911;-51
2023/10/17 02:16:48;;;;;;;;;;;;;;;5.78;100.00;101823.19;5113491;28;19947;-50
2023/10/17 02:19:14;;;;;;;;;;;;;;;5.77;100.00;101834.19;5113847;28;19918;-51
2023/10/17 02:21:39;;;;;;;;;;;;;;;5.75;100.00;101826.44;5113988;28;19915;-50
2023/10/17 02:24:07;;;;;;;;;;;;;;;5.75;100.00;101826.44;5112985;28;19962;-50
2023/10/17 02:26:42;;;;;;;;;;;;;;;5.72;100.00;101816.00;5113555;28;19919;-50
2023/10/17 02:29:11;;;;;;;;;;;;;;;5.70;100.00;101807.34;5113146;28;19915;-50
2023/10/17 02:31:36;;;;;;;;;;;;;;;5.68;100.00;101810.59;5114308;28;19912;-50
2023/10/17 02:34:01;;;;;;;;;;;;;;;5.69;100.00;101820.03;5114116;28;19919;-50
2023/10/17 02:36:26;;;;;;;;;;;;;;;5.69;100.00;101830.28;5112710;28;19914;-47
2023/10/17 02:38:52;;;;;;;;;;;;;;;5.70;100.00;101819.25;5113671;28;19915;-50
2023/10/17 02:41:24;;;;;;;;;;;;;;;5.71;100.00;101823.59;5113369;28;19911;-49
2023/10/17 02:43:53;;;;;;;;;;;;;;;5.72;100.00;101825.34;5112979;28;19925;-49
2023/10/17 02:46:18;;;;;;;;;;;;;;;5.72;100.00;101825.34;5113455;28;19912;-50
2023/10/17 02:48:45;;;;;;;;;;;;;;;5.72;100.00;101827.91;5113852;28;19925;-50
2023/10/17 02:51:26;;;;;;;;;;;;;;;5.74;100.00;101826.34;5112619;28;19995;-49
2023/10/17 02:53:53;;;;;;;;;;;;;;;5.74;100.00;101818.66;5113765;28;19935;-46
2023/10/17 02:56:19;;;;;;;;;;;;;;;5.76;100.00;101819.66;5113245;28;20359;-49
2023/10/17 02:58:48;;;;;;;;;;;;;;;5.75;100.00;101818.75;5112650;28;19923;-50
2023/10/17 03:01:14;;;;;;;;;;;;;;;5.76;100.00;101827.34;5113136;28;20295;-50
2023/10/17 03:03:39;;;;;;;;;;;;;;;5.76;100.00;101825.66;5113452;28;19916;-50
2023/10/17 03:06:05;;;;;;;;;;;;;;;5.76;100.00;101817.09;5113038;28;20403;-49
2023/10/17 03:08:36;;;;;;;;;;;;;;;5.75;100.00;101818.75;5113070;28;20384;-49
2023/10/17 03:11:02;;;;;;;;;;;;;;;5.75;100.00;101823.00;5112782;28;19912;-46
2023/10/17 03:13:40;;;;;;;;;;;;;;;5.75;100.00;101820.44;5113198;28;20270;-50
2023/10/17 03:16:25;;;;;;;;;;;;;;;5.73;100.00;101820.34;5113425;28;20363;-49
2023/10/17 03:18:50;;;;;;;;;;;;;;;5.71;100.00;101811.69;5112478;28;20001;-49
2023/10/17 03:21:18;;;;;;;;;;;;;;;5.71;100.00;101826.16;5113292;28;19958;-48
2023/10/17 03:23:46;;;;;;;;;;;;;;;5.70;100.00;101816.69;5113297;28;19928;-50
2023/10/17 03:26:12;;;;;;;;;;;;;;;5.69;100.00;101820.03;5112144;28;19911;-51
2023/10/17 03:28:40;;;;;;;;;;;;;;;5.69;100.00;101815.78;5113272;28;19912;-49
2023/10/17 03:31:10;;;;;;;;;;;;;;;5.69;100.00;101814.91;5113143;28;19947;-49
2023/10/17 03:33:40;;;;;;;;;;;;;;;5.68;100.00;101829.41;5112574;28;19998;-49
2023/10/17 03:36:05;;;;;;;;;;;;;;;5.69;100.00;101830.28;5113341;28;19912;-49
2023/10/17 03:38:36;;;;;;;;;;;;;;;5.68;100.00;101833.59;5112890;28;20020;-51
2023/10/17 03:41:15;;;;;;;;;;;;;;;5.68;100.00;101831.06;5112407;28;19965;-50
2023/10/17 03:43:49;;;;;;;;;;;;;;;5.67;100.00;101830.19;5113035;28;19918;-50
2023/10/17 03:46:15;;;;;;;;;;;;;;;5.66;100.00;101832.63;5112233;28;19911;-50
2023/10/17 03:48:49;;;;;;;;;;;;;;;5.66;100.00;101822.41;5113030;28;20016;-50
2023/10/17 03:51:21;;;;;;;;;;;;;;;5.65;100.00;101818.06;5112739;28;20344;-50
2023/10/17 03:53:47;;;;;;;;;;;;;;;5.65;100.00;101830.88;5112387;28;20355;-48
2023/10/17 03:56:18;;;;;;;;;;;;;;;5.64;100.00;101821.41;5112766;28;19939;-50
2023/10/17 03:58:49;;;;;;;;;;;;;;;5.64;100.00;101817.16;5112910;28;19962;-50
2023/10/17 04:01:18;;;;;;;;;;;;;;;5.65;100.00;101818.06;5112005;28;19911;-50
2023/10/17 04:03:43;;;;;;;;;;;;;;;5.66;100.00;101824.97;5112808;28;19912;-50
2023/10/17 04:08:37;;;;;;;;;;;;;;;5.68;100.00;101836.16;5115583;28;19977;-48
2023/10/17 04:11:36;;;;;;;;;;;;;;;5.69;100.00;101825.16;5116754;28;19916;-50
2023/10/17 04:13:55;;;;;;;;;;;;;;;5.71;100.00;101823.59;5113274;28;19919;-49
2023/10/17 04:16:22;;;;;;;;;;;;;;;5.71;100.00;101824.47;5115365;28;19965;-49
2023/10/17 04:19:00;;;;;;;;;;;;;;;5.71;100.00;101828.72;5116366;28;19947;-51
2023/10/17 04:21:30;;;;;;;;;;;;;;;5.70;100.00;101832.06;5115426;28;19918;-50
2023/10/17 04:23:56;;;;;;;;;;;;;;;5.71;100.00;101831.28;5116339;28;19922;-51
2023/10/17 04:26:27;;;;;;;;;;;;;;;5.71;100.00;101829.59;5115946;28;19994;-51
2023/10/17 04:28:54;;;;;;;;;;;;;;;5.71;100.00;101838.94;5115478;28;20359;-50
2023/10/17 04:31:26;;;;;;;;;;;;;;;5.70;100.00;101832.91;5115916;28;19916;-51
2023/10/17 04:33:56;;;;;;;;;;;;;;;5.71;100.00;101838.94;5116374;28;19962;-50
2023/10/17 04:36:22;;;;;;;;;;;;;;;5.71;100.00;101834.69;5115223;28;19911;-52
2023/10/17 04:39:09;;;;;;;;;;;;;;;5.70;100.00;101842.28;5116134;28;20366;-50
2023/10/17 04:41:44;;;;;;;;;;;;;;;5.70;100.00;101842.28;5115599;28;20013;-50
2023/10/17 04:44:16;;;;;;;;;;;;;;;5.70;100.00;101842.28;5115277;28;19912;-48
2023/10/17 04:46:49;;;;;;;;;;;;;;;5.71;100.00;101846.63;5116077;28;19995;-49
2023/10/17 04:49:18;;;;;;;;;;;;;;;5.70;100.00;101842.28;5115622;28;19943;-50
2023/10/17 04:51:44;;;;;;;;;;;;;;;5.70;100.00;101832.06;5114900;28;19912;-49
2023/10/17 04:54:20;;;;;;;;;;;;;;;5.71;100.00;101823.59;5115767;28;19915;-50
2023/10/17 04:57:00;;;;;;;;;;;;;;;5.70;100.00;101829.50;5115051;28;19920;-48
2023/10/17 04:59:43;;;;;;;;;;;;;;;5.71;100.00;101823.59;5114206;28;19916;-50
2023/10/17 06:18:38;;;;;;;;;;;;;;;5.74;100.00;101800.75;5114258;28;19926;-51
2023/10/17 06:21:07;;;;;;;;;;;;;;;5.73;100.00;101798.97;5113240;28;20343;-49
2023/10/17 06:34:14;;;;;;;;;;;;;;;5.76;100.00;101812.00;5113601;28;20347;-49
2023/10/17 06:36:40;;;;;;;;;;;;;;;5.77;100.00;101819.75;5112935;28;19912;-50
2023/10/17 06:39:19;;;;;;;;;;;;;;;5.80;100.00;101815.59;5113752;28;20367;-47
2023/10/17 06:41:45;;;;;;;;;;;;;;;5.80;100.00;101824.19;5113610;28;20386;-49
2023/10/17 06:44:15;;;;;;;;;;;;;;;5.81;100.00;101823.41;5112531;28;19992;-48
2023/10/17 06:46:48;;;;;;;;;;;;;;;5.82;100.00;101817.47;5113714;28;19912;-49
2023/10/17 06:49:29;;;;;;;;;;;;;;;5.83;100.00;101824.38;5112861;28;19935;-48
2023/10/17 06:54:41;;;;;;;;;;;;;;;5.88;100.00;101832.34;5113740;28;19911;-47
2023/10/17 06:57:19;;;;;;;;;;;;;;;5.90;100.00;101834.22;5112824;28;19912;-47
2023/10/17 06:59:50;;;;;;;;;;;;;;;5.90;100.00;101829.09;5113434;28;19976;-50
2023/10/17 07:02:18;;;;;;;;;;;;;;;5.92;100.00;101830.06;5113161;28;20355;-48
2023/10/17 07:04:43;;;;;;;;;;;;;;;5.94;100.00;101836.19;5112778;28;19947;-47
2023/10/17 07:07:09;;;;;;;;;;;;;;;5.97;100.00;101837.19;5113464;28;20259;-46
2023/10/17 07:09:38;;;;;;;;;;;;;;;5.99;100.00;101830.50;5113135;28;20251;-48
2023/10/17 07:12:04;;;;;;;;;;;;;;;6.00;100.00;101822.06;5112512;28;19934;-48
2023/10/17 07:14:29;;;;;;;;;;;;;;;6.03;100.00;101822.22;5113177;28;19911;-49
2023/10/17 07:16:58;;;;;;;;;;;;;;;6.05;100.00;101820.66;5113286;28;19938;-50
2023/10/17 07:24:25;;;;;;;;;;;;;;;6.13;100.00;101824.59;5112356;28;20020;-48
2023/10/17 07:26:52;;;;;;;;;;;;;;;6.16;100.00;101823.91;5113412;28;20000;-48
2023/10/17 07:29:21;;;;;;;;;;;;;;;6.19;100.00;101819.00;5113108;28;19935;-46
2023/10/17 07:31:49;;;;;;;;;;;;;;;6.20;100.00;101821.63;5112672;28;19911;-46
2023/10/17 07:36:43;;;;;;;;;;;;;;;6.23;100.00;101821.81;5113323;28;20426;-50
2023/10/17 07:39:22;;;;;;;;;;;;;;;6.25;100.00;101822.81;5112531;28;19965;-49
2023/10/17 07:41:53;;;;;;;;;;;;;;;6.28;100.00;101823.81;5115285;28;19936;-50
2023/10/17 07:44:21;;;;;;;;;;;;;;;6.28;100.00;101832.38;5116617;28;19912;-47
2023/10/17 07:46:50;;;;;;;;;;;;;;;6.28;100.00;101836.63;5116201;28;19949;-50
2023/10/17 07:49:18;;;;;;;;;;;;;;;6.24;100.00;101844.06;5116696;28;20371;-51
2023/10/17 07:51:43;;;;;;;;;;;;;;;6.22;100.00;101830.31;5116915;28;19915;-48
2023/10/17 07:54:09;;;;;;;;;;;;;;;6.20;100.00;101828.44;5116394;28;20007;-48
2023/10/17 07:56:34;;;;;;;;;;;;;;;6.19;100.00;101824.09;5116644;28;20367;-49
2023/10/17 07:59:08;;;;;;;;;;;;;;;6.16;100.00;101829.91;5116609;28;19926;-51
2023/10/17 08:01:38;;;;;;;;;;;;;;;6.12;100.00;101833.09;5115631;28;19919;-47
2023/10/17 08:04:23;;;;;;;;;;;;;;;6.10;100.00;101830.41;5116630;28;19912;-50
2023/10/17 08:06:50;;;;;;;;;;;;;;;6.14;100.00;101821.25;5115907;28;19918;-50
2023/10/17 08:09:24;;;;;;;;;;;;;;;6.18;100.00;101818.09;5116523;28;20007;-48
2023/10/17 08:11:53;;;;;;;;;;;;;;;6.23;100.00;101819.25;5116622;28;19998;-50
2023/10/17 08:14:22;;;;;;;;;;;;;;;6.32;100.00;101820.66;5115398;28;19994;-50
2023/10/17 08:16:49;;;;;;;;;;;;;;;6.39;100.00;101822.78;5116646;28;19972;-50
2023/10/17 08:19:16;;;;;;;;;;;;;;;6.46;100.00;101817.25;5116108;28;20002;-50
2023/10/17 08:24:26;;;;;;;;;;;;;;;6.64;100.00;101816.63;5116218;28;19918;-50
2023/10/17 08:27:13;;;;;;;;;;;;;;;6.74;100.00;101816.41;5116266;28;19912;-49
2023/10/17 08:29:38;;;;;;;;;;;;;;;6.85;100.00;101823.03;5115395;28;19912;-51
2023/10/17 08:32:14;;;;;;;;;;;;;;;6.98;100.00;101816.09;5116294;28;19918;-50
2023/10/17 08:34:42;;;;;;;;;;;;;;;7.12;100.00;101815.25;5115280;28;20382;-49
2023/10/17 08:37:07;;;;;;;;;;;;;;;7.19;100.00;101812.25;5115998;28;19912;-50
2023/10/17 08:44:57;;;;;;;;;;;;;;;7.48;100.00;101810.50;5081595;28;19923;-47
2023/10/17 08:47:25;;;;;;;;;;;;;;;7.58;100.00;101801.66;5115581;28;19934;-49
2023/10/17 08:49:54;;;;;;;;;;;;;;;7.69;100.00;101805.69;5114875;28;20029;-48
2023/10/17 08:52:20;;;;;;;;;;;;;;;7.83;100.00;101814.19;5115343;28;19939;-50
2023/10/17 08:54:47;;;;;;;;;;;;;;;8.00;100.00;101811.69;5115850;28;20424;-51
2023/10/17 08:57:12;;;;;;;;;;;;;;;8.23;100.00;101824.09;5114518;28;20270;-51
2023/10/17 09:02:22;;;;;;;;;;;;;;;8.64;100.00;101823.72;5115579;28;19912;-51
2023/10/17 09:04:49;;;;;;;;;;;;;;;8.86;100.00;101818.91;5114794;28;19988;-51
2023/10/17 09:07:31;;;;;;;;;;;;;;;9.08;100.00;101817.44;5115334;28;19918;-49
2023/10/17 09:09:56;;;;;;;;;;;;;;;9.29;100.00;101811.63;5114646;28;19931;-50
2023/10/17 09:12:24;;;;;;;;;;;;;;;9.58;100.00;101805.38;5114976;28;19911;-50
2023/10/17 09:14:52;;;;;;;;;;;;;;;9.92;100.00;101811.25;5115207;28;19918;-50
2023/10/17 09:17:21;;;;;;;;;;;;;;;10.17;100.00;101814.19;5114341;28;20355;-49
2023/10/17 09:19:46;;;;;;;;;;;;;;;10.52;100.00;101812.38;5115432;28;19911;-47
2023/10/17 09:22:14;;;;;;;;;;;;;;;10.84;100.00;101810.34;5114792;28;19919;-49
2023/10/17 09:24:40;;;;;;;;;;;;;;;11.14;100.00;101817.66;5114255;28;19912;-51
2023/10/17 09:27:06;;;;;;;;;;;;;;;11.45;100.00;101821.53;5115028;28;19918;-47
2023/10/17 09:29:49;;;;;;;;;;;;;;;11.88;100.00;101822.41;5114669;28;19935;-51
2023/10/17 09:32:32;;;;;;;;;;;;;;;12.25;100.00;101822.97;5113947;28;20367;-51
2023/10/17 09:35:00;;;;;;;;;;;;;;;12.57;100.00;101828.50;5114910;28;19912;-48
2023/10/17 09:37:27;;;;;;;;;;;;;;;12.87;100.00;101827.84;5114516;28;19911;-49
2023/10/17 09:39:53;;;;;;;;;;;;;;;12.95;100.00;101829.00;5113937;28;19919;-51
2023/10/17 09:42:19;;;;;;;;;;;;;;;13.12;100.00;101817.53;5114719;28;19934;-51
2023/10/17 09:44:44;;;;;;;;;;;;;;;13.32;99.46;101822.50;5114662;28;20351;-49
2023/10/17 09:47:10;;;;;;;;;;;;;;;13.50;93.13;101820.59;5114016;28;19912;-51
2023/10/17 09:49:37;;;;;;;;;;;;;;;13.67;98.09;101820.25;5114537;28;19911;-50
2023/10/17 09:52:09;;;;;;;;;;;;;;;13.99;97.50;101830.75;5113846;28;19908;-50
2023/10/17 09:54:35;;;;;;;;;;;;;;;14.34;96.98;101828.34;5114339;28;20389;-50
2023/10/17 09:57:02;;;;;;;;;;;;;;;14.63;93.97;101830.94;5114690;28;19912;-51
2023/10/17 09:59:32;;;;;;;;;;;;;;;14.79;94.74;101830.56;5113228;28;19946;-50
2023/10/17 10:01:58;;;;;;;;;;;;;;;14.90;94.87;101827.38;5114468;28;19911;-51
2023/10/17 10:04:23;;;;;;;;;;;;;;;14.96;88.86;101824.94;5113353;28;20404;-51
2023/10/17 10:06:48;;;;;;;;;;;;;;;15.14;98.30;101837.53;5113228;28;20314;-51
2023/10/17 10:09:14;;;;;;;;;;;;;;;15.24;95.23;101836.09;5114126;28;19907;-51
2023/10/17 10:11:48;;;;;;;;;;;;;;;15.37;93.62;101838.16;5114420;28;19911;-50
2023/10/17 10:14:13;;;;;;;;;;;;;;;15.53;93.20;101825.56;5113208;28;19964;-51
2023/10/17 10:16:54;;;;;;;;;;;;;;;15.60;93.88;101824.88;5114231;28;19911;-49
2023/10/17 10:19:22;;;;;;;;;;;;;;;15.77;89.49;101813.16;5113794;28;19912;-51
2023/10/17 10:21:52;;;;;;;;;;;;;;;15.98;87.74;101814.53;5113409;28;19997;-51
2023/10/17 10:24:18;;;;;;;;;;;;;;;16.18;88.37;101812.38;5113843;28;19912;-52
2023/10/17 10:26:44;;;;;;;;;;;;;;;16.24;84.49;101819.41;5114159;28;19991;-51
2023/10/17 10:29:22;;;;;;;;;;;;;;;16.21;74.35;101809.84;5113240;28;20353;-51
2023/10/17 10:31:47;;;;;;;;;;;;;;;16.19;82.87;101810.63;5113866;28;19950;-54
2023/10/17 10:34:12;;;;;;;;;;;;;;;16.33;80.81;101804.00;5112904;28;19950;-52
2023/10/17 10:36:39;;;;;;;;;;;;;;;16.45;81.15;101804.28;5113743;28;20252;-51
2023/10/17 10:39:08;;;;;;;;;;;;;;;16.65;74.18;101802.94;5113827;28;19952;-52
2023/10/17 10:41:33;;;;;;;;;;;;;;;16.81;78.95;101799.78;5112510;28;20410;-50
2023/10/17 10:43:59;;;;;;;;;;;;;;;17.06;80.37;101798.53;5113616;28;20002;-49
2023/10/17 10:46:24;;;;;;;;;;;;;;;17.26;76.88;101796.28;5113360;28;19912;-48
2023/10/17 10:48:51;;;;;;;;;;;;;;;17.38;68.45;101798.22;5112948;28;19911;-48
2023/10/17 10:51:17;;;;;;;;;;;;;;;17.30;66.50;101794.63;5113351;28;20363;-50
2023/10/17 10:53:44;;;;;;;;;;;;;;;17.18;73.58;101787.44;5113629;28;19919;-52
2023/10/17 10:56:11;;;;;;;;;;;;;;;17.29;78.72;101774.63;5112748;28;19957;-51
2023/10/17 10:58:51;;;;;;;;;;;;;;;17.46;74.63;101767.06;5113466;28;19922;-49
2023/10/17 11:01:18;;;;;;;;;;;;;;;17.33;63.78;101765.13;5113391;28;19919;-49
2023/10/17 11:03:46;;;;;;;;;;;;;;;17.29;65.68;101769.41;5112687;28;19918;-50
2023/10/17 11:06:13;;;;;;;;;;;;;;;17.41;68.02;101768.72;5113316;28;19991;-51
2023/10/17 11:08:39;;;;;;;;;;;;;;;17.43;77.41;101770.50;5113580;28;19949;-48
2023/10/17 11:11:05;;;;;;;;;;;;;;;17.40;73.20;101762.66;5112514;28;19943;-48
2023/10/17 11:13:37;;;;;;;;;;;;;;;17.52;74.36;101761.06;5112965;28;19919;-52
2023/10/17 11:16:06;;;;;;;;;;;;;;;17.30;61.03;101752.94;5116232;28;20006;-51
2023/10/17 11:18:34;;;;;;;;;;;;;;;17.05;68.12;101755.09;5116544;28;19915;-50
2023/10/17 11:21:00;;;;;;;;;;;;;;;17.11;71.75;101755.22;5117437;28;19911;-50
2023/10/17 11:23:27;;;;;;;;;;;;;;;17.01;71.54;101748.09;5116210;28;19973;-52
2023/10/17 11:25:52;;;;;;;;;;;;;;;17.12;64.58;101750.91;5117335;28;19933;-52
2023/10/17 11:28:18;;;;;;;;;;;;;;;17.38;75.64;101740.88;5116992;28;19907;-52
2023/10/17 11:30:48;;;;;;;;;;;;;;;17.48;69.38;101728.00;5116677;28;19911;-50
2023/10/17 11:33:17;;;;;;;;;;;;;;;17.26;69.45;101732.88;5116857;28;20259;-52
2023/10/17 11:35:49;;;;;;;;;;;;;;;17.15;65.40;101724.88;5117232;28;19912;-51
2023/10/17 11:38:38;;;;;;;;;;;;;;;17.07;59.76;101726.50;5116116;28;19912;-51
2023/10/17 11:41:06;;;;;;;;;;;;;;;16.95;53.79;101721.94;5117139;28;20286;-51
2023/10/17 11:43:50;;;;;;;;;;;;;;;16.51;57.44;101730.66;5116958;28;19915;-51
2023/10/17 11:46:26;;;;;;;;;;;;;;;16.43;64.65;101727.03;5116057;28;20351;-52
2023/10/17 11:48:54;;;;;;;;;;;;;;;16.75;67.73;101729.38;5117039;28;19919;-51
2023/10/17 11:51:25;;;;;;;;;;;;;;;16.94;63.10;101735.81;5116575;28;19964;-51
2023/10/17 11:54:04;;;;;;;;;;;;;;;16.99;64.80;101728.97;5117012;28;19922;-52
2023/10/17 11:56:33;;;;;;;;;;;;;;;17.07;69.50;101721.28;5116585;28;19998;-51
2023/10/17 11:59:01;;;;;;;;;;;;;;;17.08;69.06;101718.69;5116060;28;19915;-52
2023/10/17 12:01:26;;;;;;;;;;;;;;;17.05;68.60;101715.16;5116404;28;20403;-50
2023/10/17 12:03:52;;;;;;;;;;;;;;;16.83;65.07;101721.69;5116804;28;19965;-50
2023/10/17 12:06:17;;;;;;;;;;;;;;;16.66;70.89;101727.47;5115651;28;19971;-51
2023/10/17 12:08:45;;;;;;;;;;;;;;;16.65;66.13;101728.31;5116719;28;19956;-52
2023/10/17 12:11:10;;;;;;;;;;;;;;;16.88;66.17;101720.06;5116365;28;19916;-51
2023/10/17 12:13:37;;;;;;;;;;;;;;;17.08;63.75;101720.41;5115730;28;19912;-51
2023/10/17 12:16:08;;;;;;;;;;;;;;;17.20;64.49;101717.16;5116454;28;19919;-51
2023/10/17 12:18:34;;;;;;;;;;;;;;;17.20;63.65;101701.53;5116373;28;19921;-52
2023/10/17 12:21:01;;;;;;;;;;;;;;;17.30;66.19;101702.53;5115750;28;19911;-51
2023/10/17 12:23:29;;;;;;;;;;;;;;;17.23;58.71;101691.16;5116039;28;20355;-51
2023/10/17 12:25:55;;;;;;;;;;;;;;;17.20;62.33;101685.91;5116374;28;19911;-52
2023/10/17 12:28:20;;;;;;;;;;;;;;;17.28;63.99;101679.94;5114508;28;20011;-51
2023/10/17 12:30:45;;;;;;;;;;;;;;;17.28;66.09;101668.66;5116107;28;19947;-51
2023/10/17 12:33:11;;;;;;;;;;;;;;;17.25;67.36;101668.63;5115966;28;19921;-52
2023/10/17 12:35:37;;;;;;;;;;;;;;;17.26;63.60;101666.03;5115252;28;20286;-52
2023/10/17 12:38:14;;;;;;;;;;;;;;;17.34;64.79;101653.09;5116120;28;19918;-51
2023/10/17 12:40:40;;;;;;;;;;;;;;;17.34;61.00;101645.28;5115330;28;19918;-51
2023/10/17 12:43:07;;;;;;;;;;;;;;;17.37;60.50;101637.50;5116236;28;19912;-51
2023/10/17 12:45:33;;;;;;;;;;;;;;;17.34;61.54;101637.47;5115798;28;19965;-52
2023/10/17 12:47:58;;;;;;;;;;;;;;;17.20;63.28;101628.59;5115191;28;20330;-53
2023/10/17 12:50:24;;;;;;;;;;;;;;;17.10;55.09;101627.56;5115576;28;19952;-51
2023/10/17 12:52:49;;;;;;;;;;;;;;;17.01;57.74;101612.66;5115727;28;19912;-51
2023/10/17 12:55:14;;;;;;;;;;;;;;;16.94;63.77;101608.22;5114639;28;19919;-51
2023/10/17 12:57:40;;;;;;;;;;;;;;;16.67;60.49;101609.50;5115741;28;19927;-51
2023/10/17 13:00:09;;;;;;;;;;;;;;;16.65;60.01;101613.78;5115453;28;19919;-51
2023/10/17 13:02:35;;;;;;;;;;;;;;;16.58;59.64;101607.63;5114608;28;19912;-52
2023/10/17 13:05:00;;;;;;;;;;;;;;;16.59;59.17;101611.09;5115529;28;19972;-51
2023/10/17 13:07:28;;;;;;;;;;;;;;;16.75;62.39;101620.03;5115160;28;19918;-52
2023/10/17 13:09:53;;;;;;;;;;;;;;;16.78;54.76;101607.97;5114688;28;19998;-51
2023/10/17 13:12:19;;;;;;;;;;;;;;;16.89;61.57;101615.06;5115137;28;19947;-53
2023/10/17 13:14:44;;;;;;;;;;;;;;;16.97;56.89;101600.47;5115701;28;20381;-51
2023/10/17 13:17:11;;;;;;;;;;;;;;;16.78;58.84;101605.34;5114856;28;20372;-52
2023/10/17 13:19:40;;;;;;;;;;;;;;;16.57;59.66;101611.06;5115572;28;19911;-52
2023/10/17 13:22:08;;;;;;;;;;;;;;;16.30;60.95;101607.13;5115311;28;20011;-52
2023/10/17 13:24:34;;;;;;;;;;;;;;;15.95;57.91;101604.75;5114032;28;19911;-52
2023/10/17 13:26:59;;;;;;;;;;;;;;;15.72;61.71;101596.44;5115105;28;19912;-53
2023/10/17 13:29:26;;;;;;;;;;;;;;;15.76;61.10;101597.41;5115108;28;20267;-51
2023/10/17 13:31:51;;;;;;;;;;;;;;;15.76;61.08;101593.09;5114254;28;19922;-53
2023/10/17 13:34:22;;;;;;;;;;;;;;;15.70;62.27;101592.06;5114765;28;19907;-52
2023/10/17 13:36:47;;;;;;;;;;;;;;;15.85;63.22;101596.75;5114919;28;19919;-52
2023/10/17 13:39:13;;;;;;;;;;;;;;;15.98;62.85;101601.31;5112620;28;19912;-51
2023/10/17 13:41:38;;;;;;;;;;;;;;;15.98;62.54;101587.47;5114729;28;19916;-53
2023/10/17 13:44:04;;;;;;;;;;;;;;;15.99;64.42;101582.28;5114348;28;20247;-51
2023/10/17 13:46:32;;;;;;;;;;;;;;;16.06;64.69;101581.56;5114670;28;20390;-53
2023/10/17 13:48:58;;;;;;;;;;;;;;;16.04;66.83;101580.66;5114886;28;19911;-51
2023/10/17 13:51:23;;;;;;;;;;;;;;;15.86;60.43;101582.91;5113695;28;19988;-51
2023/10/17 13:53:50;;;;;;;;;;;;;;;15.43;63.29;101588.94;5114745;28;20328;-50
2023/10/17 13:56:16;;;;;;;;;;;;;;;14.99;65.31;101583.63;5114441;28;19923;-53
2023/10/17 13:58:41;;;;;;;;;;;;;;;14.55;65.48;101575.59;5113632;28;20273;-51
2023/10/17 14:01:32;;;;;;;;;;;;;;;14.14;65.79;101569.41;5111057;27;20346;-58
2023/10/17 14:03:58;;;;;;;;;;;;;;;13.79;71.50;101571.91;5111156;28;19920;-58
2023/10/17 14:06:23;;;;;;;;;;;;;;;13.47;69.32;101573.59;5110037;28;19922;-58
2023/10/17 14:08:49;;;;;;;;;;;;;;;13.21;69.05;101577.94;5111306;28;19916;-58
2023/10/17 14:11:18;;;;;;;;;;;;;;;13.01;73.01;101568.75;5110982;28;19962;-58
2023/10/17 14:13:46;;;;;;;;;;;;;;;12.87;71.80;101561.38;5110378;28;19923;-59
2023/10/17 14:16:12;;;;;;;;;;;;;;;12.74;73.10;101557.53;5110768;28;19925;-58
2023/10/17 14:23:57;;;;;;;;;;;;;;;12.41;76.49;101571.97;5110984;28;20368;-58
2023/10/17 14:26:22;;;;;;;;;;;;;;;12.25;77.04;101559.34;5109999;28;19916;-58
2023/10/17 14:28:48;;;;;;;;;;;;;;;12.09;76.05;101553.66;5110707;28;20328;-58
2023/10/17 14:31:13;;;;;;;;;;;;;;;11.98;75.56;101555.88;5110423;28;19916;-58
2023/10/17 14:33:38;;;;;;;;;;;;;;;11.90;75.90;101551.22;5109840;28;20383;-57
2023/10/17 14:36:04;;;;;;;;;;;;;;;11.83;78.60;101545.84;5110839;28;19920;-58
2023/10/17 14:38:29;;;;;;;;;;;;;;;11.77;79.99;101555.06;5110505;28;20274;-58
2023/10/17 14:40:55;;;;;;;;;;;;;;;11.67;79.17;101544.41;5109787;28;20287;-58
2023/10/17 14:43:20;;;;;;;;;;;;;;;11.60;80.40;101547.59;5110203;28;20283;-58